Time;durP1;ratioP1;P1;durP2;ratioP2;P2;SDS_P1;SDS_P2;PMS_P1;PMS_P2;Temp;Humidity;BMP_temperature;BMP_pressure;BME280_temperature;BME280_humidity;BME280_pressure;Samples;Min_cycle;Max_cycle;Signal;HPM_P1;HPM_P2
2023/07/09 00:02:12;;;;;;;5.30;4.80;;;;;;;22.36;100.00;100499.72;5067155;28;20213;-77
2023/07/09 00:04:38;;;;;;;5.83;4.73;;;;;;;22.30;100.00;100504.47;5065168;28;20190;-76
2023/07/09 00:07:04;;;;;;;6.00;5.00;;;;;;;22.25;100.00;100502.06;5063339;28;20264;-76
2023/07/09 00:09:30;;;;;;;5.13;4.60;;;;;;;22.23;100.00;100503.97;5061984;28;20718;-75
2023/07/09 00:11:56;;;;;;;5.83;5.23;;;;;;;22.21;100.00;100501.41;5061600;28;20292;-75
2023/07/09 00:14:21;;;;;;;5.07;4.57;;;;;;;22.17;100.00;100505.13;5066860;28;20205;-75
2023/07/09 00:16:48;;;;;;;5.23;4.80;;;;;;;22.13;100.00;100503.63;5060096;28;20179;-76
2023/07/09 00:19:17;;;;;;;5.93;4.83;;;;;;;22.09;100.00;100507.34;5055363;28;20185;-75
2023/07/09 00:21:45;;;;;;;4.70;4.30;;;;;;;22.06;100.00;100502.22;5062294;28;20737;-76
2023/07/09 00:24:12;;;;;;;5.17;4.67;;;;;;;22.02;100.00;100501.53;5061647;28;20187;-76
2023/07/09 00:26:38;;;;;;;4.70;4.03;;;;;;;22.00;100.00;100500.78;5061217;28;20598;-76
2023/07/09 00:29:04;;;;;;;4.67;4.27;;;;;;;22.02;100.00;100503.31;5065156;28;20216;-76
2023/07/09 00:31:29;;;;;;;4.80;4.40;;;;;;;22.04;100.00;100504.97;5064923;28;20278;-77
2023/07/09 00:33:55;;;;;;;5.47;4.17;;;;;;;22.05;100.00;100503.16;5060340;28;20183;-76
2023/07/09 00:36:31;;;;;;;5.40;4.90;;;;;;;22.02;100.00;100508.59;5060659;28;20288;-76
2023/07/09 00:38:59;;;;;;;6.80;4.87;;;;;;;21.96;100.00;100508.94;5063334;28;20212;-76
2023/07/09 00:41:25;;;;;;;5.77;5.17;;;;;;;21.87;100.00;100513.75;5063163;28;20209;-76
2023/07/09 00:43:51;;;;;;;5.47;4.87;;;;;;;21.82;100.00;100509.66;5062827;28;20209;-76
2023/07/09 00:46:20;;;;;;;5.33;4.93;;;;;;;21.75;100.00;100510.00;5065392;28;20217;-76
2023/07/09 00:48:51;;;;;;;5.33;4.83;;;;;;;21.73;100.00;100514.47;5059105;28;20202;-76
2023/07/09 00:51:21;;;;;;;5.70;5.20;;;;;;;21.71;100.00;100516.34;5059161;28;20244;-76
2023/07/09 00:53:51;;;;;;;5.23;4.73;;;;;;;21.69;100.00;100520.00;5065392;28;20190;-76
2023/07/09 00:56:27;;;;;;;5.23;4.73;;;;;;;21.68;100.00;100521.75;5088409;28;20170;-76
2023/07/09 00:58:55;;;;;;;5.27;4.77;;;;;;;21.65;100.00;100519.28;5074928;28;20206;-76
2023/07/09 01:01:21;;;;;;;5.00;4.60;;;;;;;21.63;100.00;100518.50;5061569;28;20217;-75
2023/07/09 01:03:57;;;;;;;5.33;4.90;;;;;;;21.63;100.00;100513.25;5062831;28;20188;-75
2023/07/09 01:06:32;;;;;;;5.37;4.50;;;;;;;21.62;100.00;100525.56;5064421;28;20685;-76
2023/07/09 01:08:59;;;;;;;5.33;4.83;;;;;;;21.61;100.00;100521.22;5059337;28;20206;-75
2023/07/09 01:11:24;;;;;;;5.07;4.60;;;;;;;21.61;100.00;100523.03;5061425;28;20561;-75
2023/07/09 01:13:56;;;;;;;5.20;4.60;;;;;;;21.59;100.00;100528.31;5063781;28;20188;-76
2023/07/09 01:16:24;;;;;;;4.87;4.43;;;;;;;21.57;100.00;100529.34;5066559;28;20547;-76
2023/07/09 01:18:51;;;;;;;6.30;5.13;;;;;;;21.51;100.00;100527.88;5058063;28;20202;-76
2023/07/09 01:21:16;;;;;;;6.43;5.40;;;;;;;21.42;100.00;100530.97;5061180;28;20218;-76
2023/07/09 01:23:47;;;;;;;5.07;4.60;;;;;;;21.40;100.00;100530.22;5063273;28;20608;-76
2023/07/09 01:26:19;;;;;;;5.90;4.93;;;;;;;21.40;100.00;100533.69;5063224;28;20187;-76
2023/07/09 01:28:45;;;;;;;5.63;4.87;;;;;;;21.40;100.00;100524.94;5060766;28;20197;-75
2023/07/09 01:31:12;;;;;;;5.43;4.80;;;;;;;21.38;100.00;100532.91;5063411;28;20182;-76
2023/07/09 01:33:39;;;;;;;5.10;4.60;;;;;;;21.39;100.00;100523.25;5057393;28;20190;-75
2023/07/09 01:36:07;;;;;;;6.10;5.47;;;;;;;21.37;100.00;100525.09;5063075;28;20182;-75
2023/07/09 01:38:33;;;;;;;5.97;5.47;;;;;;;21.36;100.00;100524.22;5062517;28;20289;-76
2023/07/09 01:40:59;;;;;;;5.30;4.80;;;;;;;21.36;100.00;100520.75;5065794;28;20343;-76
2023/07/09 01:43:26;;;;;;;5.60;5.00;;;;;;;21.36;100.00;100524.22;5062232;28;20191;-75
2023/07/09 01:45:52;;;;;;;5.43;4.93;;;;;;;21.36;100.00;100528.66;5057515;28;20697;-75
2023/07/09 01:48:20;;;;;;;4.90;4.50;;;;;;;21.32;100.00;100526.16;5051175;28;20202;-76
2023/07/09 01:50:46;;;;;;;5.13;4.70;;;;;;;21.28;100.00;100524.63;5061388;28;20185;-75
2023/07/09 01:53:16;;;;;;;4.80;4.40;;;;;;;21.24;100.00;100517.81;5064038;28;20535;-75
2023/07/09 01:55:42;;;;;;;5.17;4.77;;;;;;;21.21;100.00;100519.72;5063605;28;20216;-76
2023/07/09 01:58:08;;;;;;;5.20;4.80;;;;;;;21.14;100.00;100514.78;5060402;28;20207;-76
2023/07/09 02:00:37;;;;;;;5.70;4.83;;;;;;;21.10;100.00;100517.66;5062438;28;20228;-76
2023/07/09 02:03:04;;;;;;;5.00;4.60;;;;;;;21.08;100.00;100522.13;5062749;28;20189;-77
2023/07/09 02:05:32;;;;;;;4.97;4.37;;;;;;;21.05;100.00;100514.38;5061222;28;20185;-75
2023/07/09 02:07:58;;;;;;;5.40;4.90;;;;;;;21.00;100.00;100510.19;5061265;28;20224;-76
2023/07/09 02:10:23;;;;;;;5.67;5.17;;;;;;;20.98;100.00;100516.47;5062738;28;20189;-76
2023/07/09 02:12:48;;;;;;;5.27;4.77;;;;;;;20.93;100.00;100514.06;5064645;28;20190;-76
2023/07/09 02:15:15;;;;;;;6.07;5.00;;;;;;;20.90;100.00;100522.09;5062377;28;20201;-75
2023/07/09 02:17:41;;;;;;;5.80;5.20;;;;;;;20.83;100.00;100526.81;5061578;28;20209;-77
2023/07/09 02:20:07;;;;;;;5.47;5.07;;;;;;;20.78;100.00;100534.06;5059776;28;20192;-76
2023/07/09 02:22:37;;;;;;;6.33;5.67;;;;;;;20.74;100.00;100531.63;5062004;28;20666;-76
2023/07/09 02:25:03;;;;;;;5.50;5.00;;;;;;;20.69;100.00;100532.69;5059734;28;20273;-76
2023/07/09 02:27:29;;;;;;;5.50;5.00;;;;;;;20.66;100.00;100532.81;5057767;28;20203;-76
2023/07/09 02:29:54;;;;;;;6.07;5.47;;;;;;;20.65;100.00;100538.16;5062641;28;20182;-77
2023/07/09 02:32:28;;;;;;;5.57;4.80;;;;;;;20.63;100.00;100535.63;5062013;28;20190;-76
2023/07/09 02:34:54;;;;;;;5.23;4.80;;;;;;;20.62;100.00;100540.94;5060953;28;20881;-76
2023/07/09 02:37:22;;;;;;;5.80;5.20;;;;;;;20.61;100.00;100542.72;5055894;28;20221;-77
2023/07/09 02:39:48;;;;;;;5.67;5.13;;;;;;;20.59;100.00;100547.19;5055927;28;20257;-76
2023/07/09 02:42:15;;;;;;;5.07;4.53;;;;;;;20.58;100.00;100539.38;5059021;28;20221;-76
2023/07/09 02:44:41;;;;;;;5.67;5.10;;;;;;;20.56;100.00;100549.97;5062154;28;20227;-75
2023/07/09 02:47:08;;;;;;;5.63;5.03;;;;;;;20.55;100.00;100546.50;5057608;28;20287;-76
2023/07/09 02:49:33;;;;;;;5.40;4.90;;;;;;;20.55;100.00;100557.03;5063806;28;20884;-76
2023/07/09 02:51:59;;;;;;;5.53;5.03;;;;;;;20.53;100.00;100550.97;5061248;28;20185;-76
2023/07/09 02:54:24;;;;;;;5.73;5.23;;;;;;;20.49;100.00;100554.66;5079899;28;20198;-75
2023/07/09 02:56:49;;;;;;;6.13;4.97;;;;;;;20.45;100.00;100553.09;5088335;28;20192;-75
2023/07/09 02:59:15;;;;;;;5.53;5.03;;;;;;;20.43;100.00;100549.69;5065072;28;20197;-76
2023/07/09 03:01:40;;;;;;;7.70;4.80;;;;;;;20.39;100.00;100550.75;5058916;28;20665;-76
2023/07/09 03:04:06;;;;;;;5.20;4.70;;;;;;;20.36;100.00;100556.16;5057558;28;20648;-76
2023/07/09 03:06:32;;;;;;;5.60;5.10;;;;;;;20.34;100.00;100552.75;5061299;28;20251;-76
2023/07/09 03:08:59;;;;;;;5.20;4.73;;;;;;;20.33;100.00;100546.66;5058523;28;20217;-76
2023/07/09 03:11:25;;;;;;;5.27;4.77;;;;;;;20.34;100.00;100550.97;5057140;28;20672;-76
2023/07/09 03:13:50;;;;;;;5.60;5.10;;;;;;;20.33;100.00;100551.03;5060836;28;20195;-76
2023/07/09 03:16:18;;;;;;;5.43;4.93;;;;;;;20.31;100.00;100551.13;5063213;28;20216;-75
2023/07/09 03:18:44;;;;;;;5.27;4.53;;;;;;;20.30;100.00;100546.78;5063065;28;20365;-76
2023/07/09 03:21:09;;;;;;;6.03;5.00;;;;;;;20.26;100.00;100550.47;5058783;28;20301;-76
2023/07/09 03:23:34;;;;;;;5.93;5.30;;;;;;;20.21;100.00;100541.91;5061297;28;20272;-76
2023/07/09 03:26:00;;;;;;;5.83;5.33;;;;;;;20.18;100.00;100549.97;5059776;28;20182;-76
2023/07/09 03:28:25;;;;;;;5.67;4.93;;;;;;;20.13;100.00;100555.41;5059833;28;20285;-75
2023/07/09 03:30:54;;;;;;;4.93;4.47;;;;;;;20.10;100.00;100552.94;5057935;28;20192;-76
2023/07/09 03:33:19;;;;;;;5.67;5.17;;;;;;;20.08;100.00;100552.97;5056363;28;20232;-76
2023/07/09 03:35:46;;;;;;;5.67;5.10;;;;;;;20.06;100.00;100553.97;5059159;28;20606;-76
2023/07/09 03:38:11;;;;;;;6.97;5.43;;;;;;;20.02;100.00;100555.91;5057831;28;20218;-76
2023/07/09 03:40:37;;;;;;;5.93;5.43;;;;;;;19.97;100.00;100563.13;5063058;28;20192;-76
2023/07/09 03:43:06;;;;;;;5.53;5.00;;;;;;;19.94;100.00;100563.25;5058892;28;20190;-77
2023/07/09 03:45:32;;;;;;;5.37;4.87;;;;;;;19.92;100.00;100562.47;5059757;28;20192;-77
2023/07/09 03:47:58;;;;;;;5.27;4.87;;;;;;;19.90;100.00;100567.78;5059034;28;20205;-76
2023/07/09 03:50:23;;;;;;;5.50;5.00;;;;;;;19.92;100.00;100572.97;5064207;28;20272;-77
2023/07/09 03:52:49;;;;;;;5.70;5.10;;;;;;;19.92;100.00;100576.47;5062930;28;20219;-77
2023/07/09 03:55:14;;;;;;;5.83;5.33;;;;;;;19.92;100.00;100581.72;5059353;28;20659;-77
2023/07/09 03:57:40;;;;;;;5.53;5.03;;;;;;;19.93;100.00;100587.81;5061737;28;20252;-77
2023/07/09 04:00:10;;;;;;;6.27;5.67;;;;;;;19.92;100.00;100586.97;5056241;28;20200;-76
2023/07/09 04:02:35;;;;;;;6.17;5.57;;;;;;;19.94;100.00;100592.16;5060696;28;20304;-76
2023/07/09 04:05:00;;;;;;;7.17;5.53;;;;;;;19.96;100.00;100595.56;5056852;28;20222;-76
2023/07/09 04:07:26;;;;;;;5.10;4.60;;;;;;;19.98;100.00;100603.38;5056644;28;20241;-77
2023/07/09 04:09:51;;;;;;;5.80;5.30;;;;;;;20.00;100.00;100607.66;5063034;28;20266;-76
2023/07/09 04:12:16;;;;;;;5.60;5.10;;;;;;;20.03;100.00;100606.66;5058806;28;20176;-77
2023/07/09 04:14:42;;;;;;;5.73;5.23;;;;;;;20.07;100.00;100600.34;5062899;28;20194;-77
2023/07/09 04:17:07;;;;;;;6.27;5.13;;;;;;;20.14;100.00;100611.44;5061157;28;20205;-76
2023/07/09 04:19:32;;;;;;;5.60;5.10;;;;;;;20.22;100.00;100609.31;5057163;28;20266;-76
2023/07/09 04:21:58;;;;;;;5.40;4.93;;;;;;;20.32;100.00;100615.03;5074047;28;20202;-76
2023/07/09 04:24:23;;;;;;;5.10;4.60;;;;;;;20.42;100.00;100613.69;5061707;28;20186;-76
2023/07/09 04:26:48;;;;;;;6.00;5.40;;;;;;;20.53;100.00;100613.22;5060735;28;20232;-75
2023/07/09 04:29:14;;;;;;;7.10;6.17;;;;;;;20.62;100.00;100620.69;5061168;28;20945;-76
2023/07/09 04:31:41;;;;;;;6.50;5.90;;;;;;;20.76;100.00;100616.59;5063419;28;20174;-76
2023/07/09 04:34:07;;;;;;;7.60;5.80;;;;;;;20.88;100.00;100612.53;5061773;28;20224;-75
2023/07/09 04:36:32;;;;;;;5.77;4.80;;;;;;;20.97;100.00;100614.75;5064389;28;20220;-77
2023/07/09 04:38:58;;;;;;;5.57;5.03;;;;;;;21.05;100.00;100622.28;5065335;28;20641;-75
2023/07/09 04:41:23;;;;;;;4.67;4.27;;;;;;;21.16;100.00;100627.88;5055877;28;20229;-75
2023/07/09 04:43:49;;;;;;;6.43;4.90;;;;;;;21.50;100.00;100626.22;5060764;28;20757;-75
2023/07/09 04:46:14;;;;;;;4.90;4.50;;;;;;;22.08;100.00;100619.78;5060176;28;20182;-76
2023/07/09 04:48:40;;;;;;;4.60;4.17;;;;;;;22.73;100.00;100620.84;5056150;28;20202;-76
2023/07/09 04:51:05;;;;;;;4.70;4.20;;;;;;;23.43;100.00;100619.63;5059392;28;20189;-75
2023/07/09 04:53:30;;;;;;;5.53;5.00;;;;;;;24.05;100.00;100614.22;5074888;28;20186;-77
2023/07/09 04:55:56;;;;;;;4.87;4.37;;;;;;;24.63;99.05;100616.84;5088651;28;20185;-76
2023/07/09 04:58:21;;;;;;;5.33;4.50;;;;;;;25.10;96.92;100622.75;5061163;28;20295;-76
2023/07/09 05:00:46;;;;;;;5.47;4.43;;;;;;;25.57;94.49;100614.41;5059578;28;20213;-76
2023/07/09 05:03:12;;;;;;;4.23;3.83;;;;;;;25.99;92.62;100622.22;5060625;28;20214;-77
2023/07/09 05:05:44;;;;;;;4.73;4.33;;;;;;;26.17;91.24;100618.31;5060809;28;20189;-77
2023/07/09 05:08:09;;;;;;;4.63;3.97;;;;;;;26.50;90.20;100616.03;5060460;28;20230;-77
2023/07/09 05:10:41;;;;;;;4.17;3.87;;;;;;;26.95;88.93;100618.19;5061473;28;20265;-76
2023/07/09 05:13:07;;;;;;;4.90;4.23;;;;;;;27.41;87.12;100619.22;5063682;28;20258;-77
2023/07/09 05:15:32;;;;;;;4.47;4.03;;;;;;;27.97;85.03;100623.06;5056595;28;20749;-77
2023/07/09 05:17:57;;;;;;;4.63;3.85;;;;;;;28.36;83.15;100620.09;5067003;28;20193;-77
2023/07/09 05:20:23;;;;;;;4.63;4.20;;;;;;;28.82;82.17;100619.06;5061034;28;20178;-77
2023/07/09 05:22:48;;;;;;;4.35;3.95;;;;;;;29.21;80.90;100623.91;5064373;28;20225;-77
2023/07/09 05:25:13;;;;;;;4.30;3.90;;;;;;;29.58;80.17;100620.03;5060014;28;20201;-77
2023/07/09 05:27:39;;;;;;;4.45;4.05;;;;;;;29.99;78.60;100615.69;5061516;28;20819;-77
2023/07/09 05:30:05;;;;;;;5.05;3.92;;;;;;;30.53;73.92;100607.47;5064523;28;20181;-76
2023/07/09 05:32:31;;;;;;;4.40;4.05;;;;;;;30.87;72.30;100616.00;5067685;28;20191;-77
2023/07/09 05:34:56;;;;;;;5.82;4.32;;;;;;;31.03;72.13;100609.25;5071174;28;20964;-76
2023/07/09 05:37:21;;;;;;;5.45;4.20;;;;;;;31.37;71.42;100610.72;5067332;28;20193;-77
2023/07/09 05:39:47;;;;;;;4.80;4.20;;;;;;;31.75;69.38;100611.66;5057506;28;20654;-78
2023/07/09 05:42:12;;;;;;;5.00;4.22;;;;;;;31.84;70.22;100607.28;5072943;28;20206;-78
2023/07/09 05:44:37;;;;;;;4.85;3.50;;;;;;;32.08;69.81;100604.09;5063411;28;20186;-77
2023/07/09 05:47:03;;;;;;;3.72;3.35;;;;;;;32.27;69.56;100605.06;5057087;28;20357;-78
2023/07/09 05:49:28;;;;;;;5.03;4.53;;;;;;;32.62;67.75;100601.59;5061366;28;20185;-78
2023/07/09 05:51:53;;;;;;;4.85;4.18;;;;;;;32.72;67.59;100608.72;5065280;28;20178;-78
2023/07/09 05:54:19;;;;;;;4.30;3.90;;;;;;;33.01;67.54;100611.25;5072644;28;20189;-78
2023/07/09 05:56:44;;;;;;;5.22;4.45;;;;;;;33.38;65.63;100609.41;5064301;28;20266;-77
2023/07/09 05:59:09;;;;;;;4.90;4.35;;;;;;;33.54;65.05;100616.72;5060867;28;20612;-76
2023/07/09 06:01:35;;;;;;;4.97;4.47;;;;;;;33.74;64.06;100617.38;5061669;28;20209;-78
2023/07/09 06:04:00;;;;;;;4.43;4.03;;;;;;;33.73;65.34;100613.84;5061091;28;20334;-78
2023/07/09 06:06:26;;;;;;;5.55;4.97;;;;;;;34.16;63.08;100611.28;5058218;28;20189;-77
2023/07/09 06:08:53;;;;;;;5.78;4.82;;;;;;;34.39;62.00;100613.38;5065496;28;20276;-77
2023/07/09 06:11:18;;;;;;;5.28;4.78;;;;;;;34.25;61.63;100605.94;5064908;28;20278;-78
2023/07/09 06:13:44;;;;;;;5.15;4.57;;;;;;;34.04;61.28;100609.84;5064350;28;20276;-78
2023/07/09 06:16:09;;;;;;;6.38;4.47;;;;;;;34.50;61.50;100613.09;5062757;28;20204;-77
2023/07/09 06:18:34;;;;;;;5.85;4.72;;;;;;;34.82;60.99;100599.06;5061408;28;20217;-78
2023/07/09 06:21:02;;;;;;;6.38;4.85;;;;;;;35.07;60.23;100608.03;5055231;28;20205;-78
2023/07/09 06:23:29;;;;;;;7.50;5.18;;;;;;;34.03;60.99;100605.50;5059527;28;20214;-77
2023/07/09 06:25:54;;;;;;;7.60;5.32;;;;;;;33.23;62.29;100609.94;5062923;28;20788;-77
2023/07/09 06:28:22;;;;;;;5.22;4.70;;;;;;;33.68;62.26;100609.97;5065499;28;20209;-78
2023/07/09 06:30:48;;;;;;;5.68;4.90;;;;;;;32.95;61.74;100610.03;5056966;28;20178;-79
2023/07/09 06:33:15;;;;;;;5.25;4.75;;;;;;;33.18;62.37;100600.69;5060148;28;20201;-77
2023/07/09 06:35:52;;;;;;;5.40;4.90;;;;;;;31.92;64.17;100597.53;5061604;28;20182;-77
2023/07/09 06:38:18;;;;;;;6.45;5.10;;;;;;;32.00;64.87;100598.63;5058881;28;20217;-76
2023/07/09 06:40:44;;;;;;;6.60;4.82;;;;;;;32.11;65.01;100602.94;5057677;28;20186;-78
2023/07/09 06:43:09;;;;;;;5.10;4.68;;;;;;;32.82;64.51;100606.88;5061437;28;20239;-77
2023/07/09 06:45:35;;;;;;;4.82;4.13;;;;;;;33.34;62.69;100605.31;5064625;28;20178;-78
2023/07/09 06:48:00;;;;;;;5.63;5.13;;;;;;;33.32;62.61;100610.84;5062519;28;20202;-78
2023/07/09 06:50:26;;;;;;;6.50;4.95;;;;;;;32.90;62.87;100608.81;5060806;28;20259;-78
2023/07/09 06:52:51;;;;;;;6.53;4.68;;;;;;;32.08;65.10;100614.81;5087962;28;20183;-78
2023/07/09 06:55:17;;;;;;;4.80;4.40;;;;;;;32.95;63.74;100618.06;5074468;28;20258;-76
2023/07/09 06:57:42;;;;;;;4.90;4.13;;;;;;;33.42;63.57;100611.63;5061191;28;21968;-76
2023/07/09 07:00:08;;;;;;;7.43;5.32;;;;;;;33.96;62.66;100607.13;5064425;28;20181;-78
2023/07/09 07:02:33;;;;;;;4.68;4.15;;;;;;;33.74;62.41;100612.84;5059683;28;20290;-77
2023/07/09 07:04:59;;;;;;;8.45;4.90;;;;;;;33.63;61.82;100610.44;5056845;28;20566;-78
2023/07/09 07:07:24;;;;;;;6.20;4.90;;;;;;;33.28;62.19;100606.78;5058135;28;20198;-77
2023/07/09 07:09:50;;;;;;;5.20;4.70;;;;;;;33.21;63.09;100603.88;5060092;28;20190;-76
2023/07/09 07:12:27;;;;;;;5.78;5.20;;;;;;;33.19;62.45;100605.88;5056880;28;20187;-76
2023/07/09 07:14:53;;;;;;;7.72;4.53;;;;;;;32.15;63.06;100612.38;5059433;28;20181;-78
2023/07/09 07:17:19;;;;;;;5.15;4.68;;;;;;;32.70;62.37;100606.22;5062688;28;20206;-77
2023/07/09 07:19:45;;;;;;;5.30;4.72;;;;;;;33.00;61.56;100601.53;5062400;28;20185;-77
2023/07/09 07:22:10;;;;;;;5.93;5.32;;;;;;;32.41;61.54;100599.19;5059305;28;20201;-77
2023/07/09 07:24:35;;;;;;;4.82;4.38;;;;;;;33.02;61.71;100601.34;5060405;28;20186;-77
2023/07/09 07:27:01;;;;;;;5.18;4.60;;;;;;;33.13;61.82;100599.28;5055166;28;20225;-77
2023/07/09 07:29:26;;;;;;;6.15;4.43;;;;;;;33.24;61.62;100592.00;5063629;28;20189;-77
2023/07/09 07:31:53;;;;;;;5.75;4.90;;;;;;;32.99;61.62;100602.50;5062138;28;20246;-77
2023/07/09 07:34:18;;;;;;;5.20;4.80;;;;;;;33.05;62.07;100596.53;5059967;28;20355;-77
2023/07/09 07:36:43;;;;;;;6.10;4.88;;;;;;;32.04;62.62;100589.31;5059521;28;20983;-76
2023/07/09 07:39:09;;;;;;;6.10;5.18;;;;;;;31.83;64.23;100600.22;5054047;28;20205;-77
2023/07/09 07:41:34;;;;;;;6.22;4.90;;;;;;;32.09;63.84;100595.09;5056963;28;20202;-78
2023/07/09 07:43:59;;;;;;;5.95;4.70;;;;;;;31.83;64.67;100602.91;5063688;28;20604;-77
2023/07/09 07:46:25;;;;;;;5.95;4.85;;;;;;;31.89;64.73;100587.13;5064113;28;20663;-77
2023/07/09 07:48:50;;;;;;;5.70;4.97;;;;;;;31.97;64.74;100583.72;5061589;28;20399;-77
2023/07/09 07:51:16;;;;;;;6.65;5.15;;;;;;;31.54;64.95;100591.25;5063592;28;20185;-76
2023/07/09 07:53:41;;;;;;;5.85;5.28;;;;;;;31.91;65.07;100587.81;5063904;28;20182;-76
2023/07/09 07:56:07;;;;;;;5.28;4.88;;;;;;;31.62;65.19;100580.69;5064081;28;20174;-77
2023/07/09 07:58:32;;;;;;;5.95;4.60;;;;;;;31.82;65.10;100578.00;5067261;28;20297;-77
2023/07/09 08:00:58;;;;;;;5.85;4.65;;;;;;;32.38;63.91;100573.53;5068359;28;20214;-77
2023/07/09 08:03:24;;;;;;;5.18;4.60;;;;;;;32.66;63.35;100580.72;5067170;28;20217;-77
2023/07/09 08:05:50;;;;;;;5.72;5.22;;;;;;;31.98;64.15;100580.03;5068367;28;20754;-78
2023/07/09 08:08:16;;;;;;;5.72;4.88;;;;;;;32.48;64.52;100575.34;5065471;28;20241;-77
2023/07/09 08:10:41;;;;;;;4.72;4.22;;;;;;;33.10;63.89;100570.09;5068567;28;20640;-77
2023/07/09 08:13:07;;;;;;;7.80;5.00;;;;;;;32.56;64.20;100571.91;5060493;28;20181;-77
2023/07/09 08:15:32;;;;;;;5.68;4.90;;;;;;;32.69;63.97;100570.53;5066177;28;20182;-76
2023/07/09 08:17:57;;;;;;;6.43;5.38;;;;;;;32.04;64.75;100567.91;5075697;28;20202;-76
2023/07/09 08:20:23;;;;;;;6.57;4.68;;;;;;;31.96;65.71;100560.59;5062033;28;20189;-78
2023/07/09 08:22:48;;;;;;;7.63;5.32;;;;;;;32.06;65.60;100560.56;5069956;28;20206;-78
2023/07/09 08:25:14;;;;;;;5.28;4.72;;;;;;;32.06;65.39;100563.25;5065311;28;20206;-77
2023/07/09 08:27:39;;;;;;;5.95;4.63;;;;;;;32.23;65.27;100557.09;5063988;28;20233;-77
2023/07/09 08:30:06;;;;;;;5.63;5.07;;;;;;;32.05;64.53;100562.41;5069143;28;20181;-77
2023/07/09 08:32:31;;;;;;;4.80;4.35;;;;;;;32.48;64.20;100561.94;5065593;28;20181;-76
2023/07/09 08:34:56;;;;;;;5.97;5.38;;;;;;;31.76;65.50;100565.19;5069185;28;20684;-76
2023/07/09 08:37:22;;;;;;;5.70;5.10;;;;;;;31.89;65.35;100565.72;5070211;28;20202;-79
2023/07/09 08:39:47;;;;;;;5.55;4.55;;;;;;;32.40;64.66;100560.00;5066164;28;20246;-76
2023/07/09 08:42:28;;;;;;;6.15;5.40;;;;;;;32.60;64.73;100563.41;5064434;28;20714;-77
2023/07/09 08:45:40;;;;;;;6.10;4.75;;;;;;;32.44;64.76;100557.88;5067263;28;20188;-77
2023/07/09 08:48:30;;;;;;;5.68;5.05;;;;;;;32.08;65.07;100555.91;5057609;28;20208;-76
2023/07/09 08:51:18;;;;;;;4.63;4.22;;;;;;;31.99;65.20;100552.28;5095890;28;20223;-76
2023/07/09 08:53:56;;;;;;;6.45;4.82;;;;;;;32.05;64.95;100559.75;5066561;28;20198;-76
2023/07/09 08:56:22;;;;;;;5.55;4.97;;;;;;;31.61;65.31;100562.13;5071735;28;20189;-75
2023/07/09 08:58:50;;;;;;;6.07;5.53;;;;;;;31.81;65.32;100562.06;5061034;28;20209;-76
2023/07/09 09:01:27;;;;;;;5.32;4.93;;;;;;;32.01;65.42;100557.47;5066935;28;20217;-77
2023/07/09 09:03:58;;;;;;;6.93;4.95;;;;;;;32.16;64.68;100564.03;5065530;28;20208;-76
2023/07/09 09:06:29;;;;;;;5.93;4.93;;;;;;;32.27;64.78;100551.50;5068668;28;20189;-77
2023/07/09 09:08:58;;;;;;;5.75;5.03;;;;;;;31.84;64.61;100559.09;5067061;28;20299;-76
2023/07/09 09:11:34;;;;;;;5.43;4.93;;;;;;;31.59;66.11;100566.75;5066800;28;20209;-77
2023/07/09 09:14:05;;;;;;;5.47;4.97;;;;;;;31.82;64.94;100563.75;5060193;28;20228;-77
2023/07/09 09:16:35;;;;;;;5.43;4.88;;;;;;;32.15;64.95;100554.31;5065076;28;20182;-77
2023/07/09 09:19:01;;;;;;;5.82;5.00;;;;;;;31.85;64.82;100558.94;5061207;28;20674;-77
2023/07/09 09:21:36;;;;;;;5.93;5.03;;;;;;;31.54;65.38;100553.81;5064647;28;20206;-75
2023/07/09 09:24:19;;;;;;;6.57;5.50;;;;;;;31.99;64.80;100554.13;5059888;28;20243;-74
2023/07/09 09:26:44;;;;;;;6.38;4.90;;;;;;;31.85;66.04;100552.78;5075157;28;20221;-76
2023/07/09 09:29:12;;;;;;;8.43;5.60;;;;;;;31.71;66.94;100546.91;5055427;28;20629;-76
2023/07/09 09:31:38;;;;;;;5.53;5.03;;;;;;;32.16;66.27;100541.78;5058489;28;20193;-76
2023/07/09 09:34:05;;;;;;;6.45;5.20;;;;;;;32.05;65.97;100546.34;5058466;28;20264;-76
2023/07/09 09:36:30;;;;;;;5.38;4.88;;;;;;;32.04;66.98;100535.78;5057948;28;20191;-77
2023/07/09 09:38:56;;;;;;;5.07;4.68;;;;;;;32.29;66.72;100531.59;5060443;28;20271;-75
2023/07/09 09:41:30;;;;;;;5.55;5.03;;;;;;;32.36;66.60;100532.69;5060952;28;20217;-76
2023/07/09 09:43:56;;;;;;;6.40;5.18;;;;;;;32.06;65.54;100526.63;5068536;28;20252;-76
2023/07/09 09:46:29;;;;;;;5.57;4.82;;;;;;;32.28;65.35;100531.75;5057553;28;20228;-77
2023/07/09 09:48:59;;;;;;;5.18;4.65;;;;;;;32.34;65.15;100526.66;5060228;28;20293;-76
2023/07/09 09:51:24;;;;;;;4.45;4.05;;;;;;;32.37;64.94;100523.63;5060054;28;20269;-77
2023/07/09 09:54:24;;;;;;;8.13;4.70;;;;;;;32.25;65.37;100529.34;5057423;28;20224;-75
2023/07/09 09:56:52;;;;;;;7.20;5.32;;;;;;;32.32;65.17;100525.09;5056936;28;20182;-75
2023/07/09 09:59:30;;;;;;;5.25;4.50;;;;;;;32.53;64.80;100522.13;5055316;28;20361;-77
2023/07/09 10:02:12;;;;;;;6.15;4.88;;;;;;;32.57;64.90;100517.34;5059768;28;20732;-76
2023/07/09 10:04:37;;;;;;;6.50;5.18;;;;;;;32.62;65.22;100517.69;5073061;28;20277;-77
2023/07/09 10:07:07;;;;;;;6.60;5.18;;;;;;;32.41;65.43;100494.75;5056735;28;20345;-76
2023/07/09 10:09:50;;;;;;;8.30;5.45;;;;;;;32.42;64.13;100493.75;5055676;28;20638;-76
2023/07/09 10:12:15;;;;;;;5.53;5.03;;;;;;;32.10;65.11;100486.16;5057500;28;20187;-76
2023/07/09 10:14:49;;;;;;;6.28;4.75;;;;;;;32.42;64.77;100484.84;5063695;28;20205;-76
2023/07/09 10:17:39;;;;;;;6.00;4.70;;;;;;;32.30;64.55;100485.09;5063349;28;20219;-75
2023/07/09 10:20:08;;;;;;;6.03;4.75;;;;;;;32.43;64.25;100486.53;5055487;28;20748;-76
2023/07/09 10:22:43;;;;;;;5.40;4.85;;;;;;;32.54;64.24;100483.63;5055304;28;20764;-76
2023/07/09 10:25:47;;;;;;;5.00;4.50;;;;;;;32.53;62.82;100476.59;5058019;28;22344;-75
2023/07/09 10:28:31;;;;;;;7.75;4.63;;;;;;;32.63;62.20;100487.22;5055284;28;20991;-77
2023/07/09 10:31:08;;;;;;;4.97;4.47;;;;;;;32.45;62.25;100473.84;5060784;28;20283;-77
2023/07/09 10:33:51;;;;;;;8.25;4.97;;;;;;;32.67;62.16;100472.53;5058666;28;20182;-76
2023/07/09 10:36:41;;;;;;;4.95;4.55;;;;;;;33.04;62.57;100478.72;5069306;28;20196;-78
2023/07/09 10:39:12;;;;;;;6.25;4.68;;;;;;;33.03;63.04;100477.03;5054185;28;20188;-75
2023/07/09 10:41:38;;;;;;;5.63;5.05;;;;;;;33.03;63.43;100475.22;5065780;28;20278;-79
2023/07/09 10:44:17;;;;;;;6.05;5.15;;;;;;;32.76;63.32;100473.47;5086420;28;20213;-75
2023/07/09 10:46:49;;;;;;;5.38;4.88;;;;;;;33.00;63.17;100470.16;5062642;28;20181;-75
2023/07/09 10:49:17;;;;;;;6.03;4.95;;;;;;;33.37;63.09;100462.88;5071873;28;20194;-76
2023/07/09 10:51:48;;;;;;;5.65;4.60;;;;;;;33.28;63.15;100464.66;5056806;28;20190;-76
2023/07/09 10:54:17;;;;;;;5.32;4.45;;;;;;;33.63;63.26;100459.31;5061732;28;20214;-76
2023/07/09 10:56:49;;;;;;;5.47;4.97;;;;;;;33.76;62.40;100453.50;5060947;28;20189;-77
2023/07/09 10:59:28;;;;;;;8.40;4.70;;;;;;;33.87;62.14;100461.25;5056617;28;20669;-76
2023/07/09 11:02:37;;;;;;;5.53;5.03;;;;;;;33.89;62.09;100453.94;5057636;28;20224;-75
2023/07/09 11:05:09;;;;;;;5.20;4.53;;;;;;;34.08;61.48;100451.97;5060259;28;20701;-77
2023/07/09 11:07:38;;;;;;;4.90;4.40;;;;;;;33.68;59.01;100446.28;5064532;28;20294;-76
2023/07/09 11:10:14;;;;;;;5.10;4.15;;;;;;;33.73;58.17;100444.78;5062873;28;20545;-76
2023/07/09 11:12:44;;;;;;;5.00;4.18;;;;;;;33.94;58.43;100440.00;5058472;28;20188;-76
2023/07/09 11:15:18;;;;;;;5.63;4.70;;;;;;;33.98;61.34;100444.88;5055094;28;20193;-76
2023/07/09 11:17:46;;;;;;;5.07;4.57;;;;;;;34.18;61.01;100436.53;5061055;28;20578;-76
2023/07/09 11:20:35;;;;;;;7.20;5.10;;;;;;;33.86;59.98;100438.97;5063040;28;20186;-76
2023/07/09 11:23:07;;;;;;;5.72;4.63;;;;;;;33.94;59.81;100442.69;5060649;28;20209;-76
2023/07/09 11:25:43;;;;;;;6.53;4.75;;;;;;;34.17;59.28;100432.19;5061907;28;20234;-76
2023/07/09 11:28:09;;;;;;;4.78;4.38;;;;;;;34.46;58.70;100433.59;5057462;28;20205;-76